This is the latest recevied weather packets stored in our database for station/object WA4TPR. If no packets are shown the sender has not sent any weather packets the latest 10 day(s).
| Time | Temp. | Humidity | Pressure | Rain* | Wind** | Luminosity | Snow |
|---|---|---|---|---|---|---|---|
| 1777312960 | 28.89° C | 66% | 1019 hPa | 0 mm | - | 221 W/m² | - |
| 1777312657 | 30° C | 64% | 1019 hPa | 0 mm | - | 248 W/m² | - |
| 1777312354 | 29.44° C | 63% | 1018.9 hPa | 0 mm | - | 334 W/m² | - |
| 1777312051 | 30.56° C | 63% | 1018.9 hPa | 0 mm | - | 234 W/m² | - |
| 1777311748 | 30° C | 64% | 1019 hPa | 0 mm | - | 977 W/m² | - |
| 1777311446 | 29.44° C | 65% | 1019 hPa | 0 mm | - | 912 W/m² | - |
| 1777311143 | 30° C | 62% | 1019 hPa | 0 mm | - | 895 W/m² | - |
| 1777310841 | 30° C | 63% | 1019.1 hPa | 0 mm | - | 947 W/m² | - |
| 1777310538 | 30° C | 64% | 1019 hPa | 0 mm | - | 980 W/m² | - |
| 1777310235 | 30° C | 65% | 1019 hPa | 0 mm | - | 343 W/m² | - |
| 1777309932 | 29.44° C | 66% | 1018.8 hPa | 0 mm | - | 926 W/m² | - |
| 1777309630 | 29.44° C | 66% | 1019.2 hPa | 0 mm | - | 922 W/m² | - |
| 1777309327 | 29.44° C | 65% | 1019.1 hPa | 0 mm | - | 668 W/m² | - |
| 1777309025 | 30° C | 65% | 1019.2 hPa | 0 mm | - | 915 W/m² | - |
| 1777308722 | 28.89° C | 67% | 1019.2 hPa | 0 mm | - | 872 W/m² | - |
| 1777308416 | 29.44° C | 67% | 1019.2 hPa | 0 mm | - | 214 W/m² | - |
| 1777308112 | 28.33° C | 69% | 1018.9 hPa | 0 mm | - | 886 W/m² | - |
| 1777307809 | 28.89° C | 69% | 1019.3 hPa | 0 mm | - | 360 W/m² | - |
| 1777307502 | 29.44° C | 68% | 1019.3 hPa | 0 mm | - | 855 W/m² | - |
| 1777307198 | 28.89° C | 70% | 1019.3 hPa | 0 mm | - | 855 W/m² | - |
| 1777306895 | 28.89° C | 70% | 1019.3 hPa | 0 mm | - | 810 W/m² | - |
| 1777306592 | 28.89° C | 70% | 1019.4 hPa | 0 mm | - | 851 W/m² | - |
| 1777306288 | 28.89° C | 70% | 1019.3 hPa | 0 mm | - | 212 W/m² | - |
| 1777305983 | 28.33° C | 70% | 1019.4 hPa | 0 mm | - | 783 W/m² | - |
| 1777305681 | 28.33° C | 71% | 1019.4 hPa | 0 mm | - | 172 W/m² | - |
* Rain latest hour (hover to see other rain measurements)
** Current wind speed in m/s (hover to see current wind gust speed)